Time;durP1;ratioP1;P1;durP2;ratioP2;P2;SDS_P1;SDS_P2;PMS_P1;PMS_P2;Temp;Humidity;BMP_temperature;BMP_pressure;BME280_temperature;BME280_humidity;BME280_pressure;Samples;Min_cycle;Max_cycle;Signal;HPM_P1;HPM_P2
2023/10/20 00:01:00;;;;;;;20.20;11.80;;;11.60;99.90;;;;;;5046403;28;20107;-42
2023/10/20 00:03:26;;;;;;;17.48;12.55;;;11.60;99.90;;;;;;5048866;28;20072;-41
2023/10/20 00:05:52;;;;;;;17.15;11.90;;;11.50;99.90;;;;;;5044961;28;20021;-39
2023/10/20 00:08:17;;;;;;;20.52;12.40;;;11.60;99.90;;;;;;5045405;28;20422;-40
2023/10/20 00:10:46;;;;;;;19.88;12.93;;;11.60;99.90;;;;;;5047461;28;20125;-40
2023/10/20 00:13:12;;;;;;;19.98;12.95;;;11.60;99.90;;;;;;5048578;28;20029;-36
2023/10/20 00:15:38;;;;;;;17.77;12.45;;;11.50;99.90;;;;;;5043492;28;20064;-40
2023/10/20 00:18:04;;;;;;;20.15;12.68;;;11.50;99.90;;;;;;5050298;28;20514;-40
2023/10/20 00:20:29;;;;;;;22.25;13.57;;;11.50;99.90;;;;;;5041865;28;20029;-41
2023/10/20 00:22:55;;;;;;;22.10;13.30;;;11.50;99.90;;;;;;5053714;28;20124;-40
2023/10/20 00:25:21;;;;;;;21.48;13.27;;;11.50;99.90;;;;;;5043392;28;20037;-39
2023/10/20 00:27:47;;;;;;;20.45;12.68;;;11.50;99.90;;;;;;5045958;28;20034;-40
2023/10/20 00:30:14;;;;;;;19.83;12.80;;;11.50;99.90;;;;;;5045893;28;20063;-39
2023/10/20 00:32:40;;;;;;;20.42;13.65;;;11.50;99.90;;;;;;5046532;28;20506;-40
2023/10/20 00:35:08;;;;;;;20.27;13.20;;;11.50;99.90;;;;;;5045935;28;20040;-40
2023/10/20 00:37:34;;;;;;;22.35;14.02;;;11.50;99.90;;;;;;5041834;28;20795;-36
2023/10/20 00:39:59;;;;;;;21.05;12.77;;;11.50;99.90;;;;;;5038471;28;20041;-41
2023/10/20 00:42:25;;;;;;;17.02;11.45;;;11.60;99.90;;;;;;5040452;28;20082;-40
2023/10/20 00:44:53;;;;;;;20.17;11.63;;;11.60;99.90;;;;;;5042141;28;20052;-40
2023/10/20 00:47:20;;;;;;;20.92;14.05;;;11.70;99.90;;;;;;5049812;28;20024;-40
2023/10/20 00:49:48;;;;;;;20.30;13.40;;;11.70;99.90;;;;;;5045929;28;20032;-41
2023/10/20 00:52:14;;;;;;;18.30;12.40;;;11.60;99.90;;;;;;5051313;28;20029;-37
2023/10/20 00:54:44;;;;;;;22.45;13.18;;;11.60;99.90;;;;;;5051552;28;20098;-37
2023/10/20 00:57:11;;;;;;;19.75;12.40;;;11.60;99.90;;;;;;5044711;28;20056;-35
2023/10/20 00:59:37;;;;;;;19.42;13.27;;;11.60;99.90;;;;;;5034869;28;20505;-40
2023/10/20 01:02:03;;;;;;;17.83;12.27;;;11.50;99.90;;;;;;5046329;28;20134;-39
2023/10/20 01:04:28;;;;;;;18.55;12.27;;;11.50;99.90;;;;;;5048129;28;20287;-41
2023/10/20 01:06:54;;;;;;;21.00;13.55;;;11.50;99.90;;;;;;5041511;28;20646;-37
2023/10/20 01:09:27;;;;;;;22.10;13.32;;;11.50;99.90;;;;;;5047266;28;20025;-35
2023/10/20 01:11:54;;;;;;;17.15;12.50;;;11.50;99.90;;;;;;5045349;28;20554;-35
2023/10/20 01:14:20;;;;;;;22.13;13.07;;;11.50;99.90;;;;;;5049619;28;20163;-40
2023/10/20 01:16:47;;;;;;;19.80;12.90;;;11.60;99.90;;;;;;5045644;28;20111;-40
2023/10/20 01:19:12;;;;;;;22.77;14.05;;;11.60;99.90;;;;;;5046568;28;20017;-36
2023/10/20 01:21:38;;;;;;;20.13;13.48;;;11.50;99.90;;;;;;5046059;28;20025;-39
2023/10/20 01:24:04;;;;;;;21.13;14.25;;;11.50;99.90;;;;;;5043558;28;20522;-39
2023/10/20 01:26:31;;;;;;;20.00;12.45;;;11.50;99.90;;;;;;5043121;28;20393;-40
2023/10/20 01:28:58;;;;;;;22.30;13.82;;;11.50;99.90;;;;;;5047275;28;20032;-38
2023/10/20 01:31:23;;;;;;;20.67;13.95;;;11.50;99.90;;;;;;5044530;28;20517;-41
2023/10/20 01:33:49;;;;;;;19.67;12.60;;;11.50;99.90;;;;;;5054637;28;20024;-40
2023/10/20 01:36:15;;;;;;;25.77;14.05;;;11.50;99.90;;;;;;5043476;28;20037;-34
2023/10/20 01:38:40;;;;;;;22.60;14.70;;;11.40;99.90;;;;;;5046679;28;20445;-40
2023/10/20 01:41:06;;;;;;;21.10;13.63;;;11.40;99.90;;;;;;5041822;28;20086;-38
2023/10/20 01:43:33;;;;;;;22.65;13.95;;;11.40;99.90;;;;;;5044317;28;20036;-35
2023/10/20 01:46:00;;;;;;;20.80;14.63;;;11.40;99.90;;;;;;5043678;28;20585;-32
2023/10/20 01:48:25;;;;;;;22.42;14.48;;;11.40;99.90;;;;;;5045313;28;20046;-32
2023/10/20 01:50:51;;;;;;;21.85;12.82;;;11.40;99.90;;;;;;5041901;28;20439;-32
2023/10/20 01:53:16;;;;;;;21.70;13.88;;;11.40;99.90;;;;;;5044585;28;20040;-35
2023/10/20 01:55:50;;;;;;;22.65;12.80;;;11.50;99.90;;;;;;5045058;28;20120;-32
2023/10/20 01:58:19;;;;;;;22.10;14.00;;;11.40;99.90;;;;;;5045703;28;20091;-34
2023/10/20 02:00:53;;;;;;;22.20;13.75;;;11.40;99.90;;;;;;5044614;28;20150;-31
2023/10/20 02:03:19;;;;;;;22.30;14.75;;;11.40;99.90;;;;;;5043081;28;20086;-33
2023/10/20 02:05:45;;;;;;;21.42;14.73;;;11.30;99.90;;;;;;5047800;28;20380;-36
2023/10/20 02:08:11;;;;;;;24.35;15.50;;;11.30;99.90;;;;;;5046950;28;20031;-34
2023/10/20 02:10:37;;;;;;;19.27;11.48;;;11.30;99.90;;;;;;5049214;28;20025;-33
2023/10/20 02:13:03;;;;;;;22.60;14.95;;;11.30;99.90;;;;;;5041408;28;20071;-33
2023/10/20 02:15:30;;;;;;;26.25;17.23;;;11.30;99.90;;;;;;5041734;28;20412;-33
2023/10/20 02:17:56;;;;;;;27.85;18.48;;;11.30;99.90;;;;;;5049429;28;20052;-33
2023/10/20 02:20:25;;;;;;;28.05;18.40;;;11.20;99.90;;;;;;5043840;28;20115;-32
2023/10/20 02:22:54;;;;;;;27.27;18.60;;;11.30;99.90;;;;;;5046401;28;20056;-33
2023/10/20 02:25:22;;;;;;;30.05;17.77;;;11.30;99.90;;;;;;5044742;28;20041;-35
2023/10/20 02:27:47;;;;;;;27.60;17.17;;;11.30;99.90;;;;;;5049592;28;20012;-34
2023/10/20 02:30:14;;;;;;;27.80;17.23;;;11.40;99.90;;;;;;5043810;28;20025;-34
2023/10/20 02:32:41;;;;;;;26.13;15.45;;;11.30;99.90;;;;;;5047508;28;20604;-35
2023/10/20 02:35:08;;;;;;;24.02;14.70;;;11.40;99.90;;;;;;5055839;28;20367;-35
2023/10/20 02:37:34;;;;;;;23.05;14.23;;;11.40;99.90;;;;;;5040208;28;20025;-36
2023/10/20 02:40:01;;;;;;;24.08;13.73;;;11.40;99.90;;;;;;5046588;28;20033;-33
2023/10/20 02:42:31;;;;;;;26.35;15.35;;;11.40;99.90;;;;;;5042919;28;20497;-42
2023/10/20 02:44:57;;;;;;;25.77;16.15;;;11.30;99.90;;;;;;5044907;28;20040;-37
2023/10/20 02:47:22;;;;;;;22.15;14.75;;;11.20;99.90;;;;;;5046784;28;20524;-39
2023/10/20 02:49:52;;;;;;;24.38;15.27;;;11.20;99.90;;;;;;5045933;28;20026;-40
2023/10/20 02:52:17;;;;;;;23.15;15.27;;;11.20;99.90;;;;;;5037547;28;20021;-32
2023/10/20 02:54:43;;;;;;;23.23;14.68;;;11.20;99.90;;;;;;5041018;28;20150;-32
2023/10/20 02:57:09;;;;;;;24.65;15.02;;;11.20;99.90;;;;;;5041111;28;20124;-37
2023/10/20 02:59:35;;;;;;;22.55;14.98;;;11.20;99.90;;;;;;5051533;28;20199;-34
2023/10/20 03:02:01;;;;;;;23.77;15.55;;;11.20;99.90;;;;;;5044806;28;20033;-33
2023/10/20 03:04:26;;;;;;;26.05;14.88;;;11.20;99.90;;;;;;5025043;28;20037;-33
2023/10/20 03:06:52;;;;;;;23.42;15.32;;;11.10;99.90;;;;;;5043993;28;20035;-33
2023/10/20 03:09:18;;;;;;;26.23;15.13;;;11.10;99.90;;;;;;5042483;28;20021;-32
2023/10/20 03:11:44;;;;;;;21.42;15.27;;;11.10;99.90;;;;;;5046474;28;20098;-31
2023/10/20 03:14:09;;;;;;;25.33;16.33;;;11.10;99.90;;;;;;5049059;28;20446;-35
2023/10/20 03:16:42;;;;;;;27.50;18.65;;;11.10;99.90;;;;;;5046975;28;20024;-35
2023/10/20 03:19:08;;;;;;;27.70;16.15;;;11.10;99.90;;;;;;5050342;28;20033;-32
2023/10/20 03:21:34;;;;;;;28.15;17.85;;;11.00;99.90;;;;;;5047392;28;20044;-34
2023/10/20 03:24:00;;;;;;;30.92;18.70;;;11.00;99.90;;;;;;5048281;28;20835;-33
2023/10/20 03:26:25;;;;;;;27.08;16.55;;;11.00;99.90;;;;;;5045252;28;20090;-32
2023/10/20 03:28:51;;;;;;;30.08;17.25;;;11.00;99.90;;;;;;5046028;28;20032;-33
2023/10/20 03:31:17;;;;;;;29.70;17.02;;;11.00;99.90;;;;;;5048848;28;20033;-34
2023/10/20 03:33:42;;;;;;;27.30;16.58;;;11.00;99.90;;;;;;5056302;28;20722;-33
2023/10/20 03:36:08;;;;;;;28.00;16.67;;;11.10;99.90;;;;;;5050786;28;20390;-36
2023/10/20 03:38:34;;;;;;;30.60;18.20;;;11.10;99.90;;;;;;5050078;28;20659;-35
2023/10/20 03:41:06;;;;;;;28.58;18.52;;;11.10;99.90;;;;;;5046068;28;20033;-33
2023/10/20 03:43:34;;;;;;;26.73;17.85;;;11.00;99.90;;;;;;5045832;28;20036;-35
2023/10/20 03:46:00;;;;;;;31.35;19.40;;;11.10;99.90;;;;;;5048280;28;20044;-33
2023/10/20 03:48:29;;;;;;;26.50;17.10;;;11.10;99.90;;;;;;5043665;28;20059;-35
2023/10/20 03:50:55;;;;;;;28.77;19.00;;;11.00;99.90;;;;;;5048926;28;20385;-34
2023/10/20 03:53:27;;;;;;;29.42;18.83;;;11.10;99.90;;;;;;5046878;28;20102;-38
2023/10/20 03:56:04;;;;;;;27.80;17.08;;;11.00;99.90;;;;;;5052336;28;20055;-40
2023/10/20 03:58:30;;;;;;;29.33;17.70;;;11.00;99.90;;;;;;5049193;28;20075;-40
2023/10/20 04:00:57;;;;;;;27.90;16.80;;;10.90;99.90;;;;;;5067568;28;20102;-40
2023/10/20 04:03:25;;;;;;;26.30;16.65;;;10.90;99.90;;;;;;5045650;28;20037;-41
2023/10/20 04:05:51;;;;;;;29.02;18.98;;;10.90;99.90;;;;;;5050838;28;20541;-41
2023/10/20 04:08:18;;;;;;;28.83;19.00;;;10.90;99.90;;;;;;5049646;28;20047;-39
2023/10/20 04:10:43;;;;;;;28.15;18.20;;;10.90;99.90;;;;;;5043487;28;20503;-42
2023/10/20 04:13:10;;;;;;;31.15;19.38;;;10.80;99.90;;;;;;5046458;28;20032;-41
2023/10/20 04:15:36;;;;;;;28.35;18.73;;;10.80;99.90;;;;;;5045981;28;20477;-38
2023/10/20 04:18:04;;;;;;;32.10;17.80;;;10.80;99.90;;;;;;5048892;28;20028;-40
2023/10/20 04:20:30;;;;;;;27.65;17.70;;;10.80;99.90;;;;;;5047517;28;20033;-41
2023/10/20 04:22:58;;;;;;;27.38;16.83;;;10.70;99.90;;;;;;5045450;28;20025;-42
2023/10/20 04:25:27;;;;;;;27.95;18.00;;;10.70;99.90;;;;;;5045111;28;20056;-40
2023/10/20 04:41:56;;;;;;;29.63;17.48;;;10.60;99.90;;;;;;5043327;28;20082;-40
2023/10/20 04:57:50;;;;;;;;;;;10.50;99.90;;;;;;5043874;28;20474;-38
2023/10/20 05:06:10;;;;;;;28.20;17.75;;;10.40;99.90;;;;;;5043390;28;20057;-39
2023/10/20 05:10:38;;;;;;;29.60;19.15;;;10.40;99.90;;;;;;5042245;28;20025;-42
2023/10/20 05:13:04;;;;;;;30.35;18.45;;;10.40;99.90;;;;;;5043666;28;20490;-39
2023/10/20 05:15:38;;;;;;;31.52;19.73;;;10.30;99.90;;;;;;5039077;28;20144;-36
2023/10/20 05:18:05;;;;;;;30.73;19.58;;;10.30;99.90;;;;;;5044644;28;20033;-40
2023/10/20 05:20:34;;;;;;;31.17;20.02;;;10.30;99.90;;;;;;5040507;28;20107;-39
2023/10/20 05:23:00;;;;;;;32.15;19.25;;;10.30;99.90;;;;;;5041152;28;20482;-38
2023/10/20 05:25:26;;;;;;;33.67;19.70;;;10.20;99.90;;;;;;5042342;28;20049;-40
2023/10/20 05:27:51;;;;;;;33.20;19.55;;;10.20;99.90;;;;;;5043769;28;20025;-38
2023/10/20 05:30:17;;;;;;;31.42;19.63;;;10.30;99.90;;;;;;5040340;28;20155;-38
2023/10/20 05:32:43;;;;;;;34.17;20.63;;;10.20;99.90;;;;;;5041457;28;20718;-39
2023/10/20 05:35:09;;;;;;;29.23;19.20;;;10.20;99.90;;;;;;5040666;28;20056;-40
2023/10/20 05:37:35;;;;;;;32.35;19.70;;;10.20;99.90;;;;;;5037553;28;20504;-39
2023/10/20 05:40:02;;;;;;;30.08;19.60;;;10.20;99.90;;;;;;5039025;28;20057;-37
2023/10/20 05:42:28;;;;;;;32.42;20.95;;;10.20;99.90;;;;;;5042750;28;20489;-39
2023/10/20 05:45:09;;;;;;;33.17;19.98;;;10.20;99.90;;;;;;5044160;28;20094;-38
2023/10/20 05:47:38;;;;;;;33.75;21.17;;;10.20;99.90;;;;;;5041504;28;20102;-39
2023/10/20 05:50:04;;;;;;;32.38;20.70;;;10.20;99.90;;;;;;5045302;28;20035;-39
2023/10/20 05:52:30;;;;;;;34.10;20.80;;;10.20;99.90;;;;;;5042782;28;20031;-40
2023/10/20 05:54:59;;;;;;;36.42;21.23;;;10.20;99.90;;;;;;5044058;28;21142;-39
2023/10/20 05:57:26;;;;;;;37.25;20.65;;;10.20;99.90;;;;;;5043452;28;20029;-38
2023/10/20 05:59:51;;;;;;;38.22;20.85;;;10.20;99.90;;;;;;5044070;28;20037;-38
2023/10/20 06:02:18;;;;;;;34.03;22.00;;;10.10;99.90;;;;;;5044849;28;21354;-39
2023/10/20 06:04:43;;;;;;;35.25;21.75;;;10.10;99.90;;;;;;5045082;28;20386;-40
2023/10/20 06:07:09;;;;;;;34.55;21.77;;;10.10;99.90;;;;;;5043131;28;20036;-39
2023/10/20 06:09:34;;;;;;;38.70;22.02;;;10.10;99.90;;;;;;5039654;28;20017;-38
2023/10/20 06:12:01;;;;;;;40.35;22.30;;;10.10;99.90;;;;;;5042566;28;20116;-35
2023/10/20 06:14:27;;;;;;;36.33;21.33;;;10.10;99.90;;;;;;5043918;28;20064;-39
2023/10/20 06:16:53;;;;;;;39.03;21.83;;;10.10;99.90;;;;;;5044195;28;20083;-41
2023/10/20 06:19:19;;;;;;;36.75;21.35;;;10.10;99.90;;;;;;5042425;28;20052;-42
2023/10/20 06:21:45;;;;;;;40.70;22.65;;;10.10;99.90;;;;;;5044244;28;20391;-39
2023/10/20 06:24:11;;;;;;;37.13;20.67;;;10.00;99.90;;;;;;5041691;28;20037;-39
2023/10/20 06:26:37;;;;;;;40.42;22.95;;;10.00;99.90;;;;;;5042219;28;20198;-37
2023/10/20 06:29:02;;;;;;;37.95;22.23;;;10.00;99.90;;;;;;5042031;28;20139;-39
2023/10/20 06:34:09;;;;;;;37.60;21.80;;;10.00;99.90;;;;;;5044493;28;20063;-40
2023/10/20 06:36:37;;;;;;;38.17;21.73;;;10.00;99.90;;;;;;5043894;28;20179;-39
2023/10/20 06:39:03;;;;;;;41.50;24.90;;;10.00;99.90;;;;;;5044378;28;20394;-39
2023/10/20 06:41:29;;;;;;;44.35;23.90;;;10.10;99.90;;;;;;5042072;28;20175;-40
2023/10/20 06:43:55;;;;;;;41.15;22.73;;;10.00;99.90;;;;;;5044289;28;20116;-40
2023/10/20 06:46:21;;;;;;;39.72;23.23;;;10.10;99.90;;;;;;5040536;28;20033;-39
2023/10/20 06:48:47;;;;;;;38.35;22.55;;;10.10;99.90;;;;;;5048025;28;20073;-39
2023/10/20 06:51:14;;;;;;;40.25;23.42;;;10.20;99.90;;;;;;5045688;28;20032;-38
2023/10/20 06:53:39;;;;;;;36.20;22.08;;;10.30;99.90;;;;;;5045085;28;20033;-40
2023/10/20 06:56:09;;;;;;;38.95;22.88;;;10.30;99.90;;;;;;5042832;28;20083;-39
2023/10/20 06:58:34;;;;;;;36.42;22.65;;;10.40;99.90;;;;;;5047174;28;20033;-37
2023/10/20 07:01:05;;;;;;;38.05;23.23;;;10.40;99.90;;;;;;5044498;28;20040;-39
2023/10/20 07:03:32;;;;;;;37.30;22.02;;;10.50;99.90;;;;;;5045483;28;20044;-39
2023/10/20 07:05:58;;;;;;;39.20;23.88;;;10.50;99.90;;;;;;5040508;28;20025;-39
2023/10/20 07:08:24;;;;;;;38.17;22.33;;;10.50;99.90;;;;;;5046159;28;20504;-39
2023/10/20 07:10:50;;;;;;;40.83;23.80;;;10.50;99.90;;;;;;5045577;28;20094;-40
2023/10/20 07:13:17;;;;;;;40.67;24.85;;;10.50;99.90;;;;;;5046553;28;20087;-34
2023/10/20 07:15:43;;;;;;;39.40;23.85;;;10.50;99.90;;;;;;5041028;28;20036;-39
2023/10/20 07:18:12;;;;;;;40.13;23.95;;;10.60;99.90;;;;;;5044949;28;20037;-40
2023/10/20 07:20:41;;;;;;;39.88;24.67;;;10.60;99.90;;;;;;5046227;28;20533;-37
2023/10/20 07:23:07;;;;;;;43.67;23.67;;;10.70;99.90;;;;;;5044805;28;20037;-39
2023/10/20 07:25:33;;;;;;;39.47;23.80;;;10.70;99.90;;;;;;5047511;28;20060;-40
2023/10/20 07:27:58;;;;;;;40.10;24.15;;;10.70;99.90;;;;;;5047027;28;20036;-39
2023/10/20 07:30:24;;;;;;;40.83;23.85;;;10.70;99.90;;;;;;5043907;28;20029;-40
2023/10/20 07:32:51;;;;;;;41.50;23.83;;;10.70;99.90;;;;;;5043624;28;20021;-37
2023/10/20 07:35:17;;;;;;;43.63;25.15;;;10.70;99.90;;;;;;5042668;28;20497;-36
2023/10/20 07:37:43;;;;;;;40.40;23.08;;;10.70;99.90;;;;;;5041564;28;20485;-34
2023/10/20 07:40:10;;;;;;;44.92;24.52;;;10.80;99.90;;;;;;5039790;28;20098;-40
2023/10/20 07:42:38;;;;;;;39.78;23.65;;;10.80;99.90;;;;;;5044384;28;20059;-39
2023/10/20 07:45:06;;;;;;;37.63;21.67;;;10.80;99.90;;;;;;5045994;28;20049;-39
2023/10/20 07:47:32;;;;;;;45.13;24.10;;;10.80;99.90;;;;;;5038457;28;20021;-41
2023/10/20 07:49:58;;;;;;;40.45;22.92;;;10.80;99.90;;;;;;5045910;28;20293;-43
2023/10/20 07:52:28;;;;;;;40.38;21.80;;;10.90;99.90;;;;;;5044850;28;20027;-36
2023/10/20 07:54:54;;;;;;;34.80;21.10;;;10.90;99.90;;;;;;5045052;28;20044;-38
2023/10/20 07:57:20;;;;;;;36.97;22.02;;;10.90;99.90;;;;;;5042627;28;20393;-40
2023/10/20 07:59:46;;;;;;;35.85;20.05;;;11.00;99.90;;;;;;5043007;28;20043;-42
2023/10/20 08:02:12;;;;;;;36.55;22.75;;;11.00;99.90;;;;;;5044638;28;20123;-34
2023/10/20 08:04:40;;;;;;;37.25;21.60;;;11.00;99.90;;;;;;5042706;28;20104;-38
2023/10/20 08:07:06;;;;;;;38.47;22.60;;;11.00;99.90;;;;;;5044990;28;20025;-42
2023/10/20 08:09:32;;;;;;;38.60;22.10;;;11.00;99.90;;;;;;5047258;28;20033;-42
2023/10/20 08:11:59;;;;;;;40.17;23.85;;;11.00;99.90;;;;;;5045234;28;20074;-39
2023/10/20 08:14:26;;;;;;;35.42;22.42;;;11.00;99.90;;;;;;5045856;28;20585;-37
2023/10/20 08:16:52;;;;;;;40.80;22.40;;;11.00;99.90;;;;;;5045402;28;20096;-43
2023/10/20 08:19:18;;;;;;;37.22;21.90;;;11.00;99.90;;;;;;5045590;28;20104;-41
2023/10/20 08:21:43;;;;;;;37.53;22.77;;;11.10;99.90;;;;;;5045031;28;20136;-40
2023/10/20 08:24:10;;;;;;;36.13;20.55;;;11.20;99.90;;;;;;5046925;28;20044;-40
2023/10/20 08:26:36;;;;;;;36.92;21.40;;;11.20;99.90;;;;;;5044637;28;20036;-42
2023/10/20 08:29:06;;;;;;;35.28;20.80;;;11.30;99.90;;;;;;5047733;28;20478;-41
2023/10/20 08:31:31;;;;;;;34.53;20.20;;;11.30;99.90;;;;;;5044287;28;20526;-41
2023/10/20 08:33:58;;;;;;;35.17;20.98;;;11.30;99.90;;;;;;5044996;28;20041;-40
2023/10/20 08:36:24;;;;;;;34.78;20.80;;;11.30;99.90;;;;;;5045843;28;20444;-40
2023/10/20 08:38:51;;;;;;;34.60;20.88;;;11.40;99.90;;;;;;5046006;28;20025;-40
2023/10/20 08:41:21;;;;;;;37.58;20.83;;;11.40;99.90;;;;;;5044686;28;20087;-35
2023/10/20 08:43:48;;;;;;;34.80;21.77;;;11.40;99.90;;;;;;5042914;28;20415;-37
2023/10/20 08:46:18;;;;;;;31.75;21.75;;;11.50;99.90;;;;;;5044281;28;20486;-37
2023/10/20 08:48:45;;;;;;;35.45;21.27;;;11.50;99.90;;;;;;5045462;28;20036;-39
2023/10/20 08:51:13;;;;;;;34.63;20.65;;;11.50;99.90;;;;;;5044721;28;20021;-39
2023/10/20 08:53:39;;;;;;;34.78;19.92;;;11.60;99.90;;;;;;5044077;28;20033;-41
2023/10/20 08:56:08;;;;;;;32.53;20.02;;;11.70;99.90;;;;;;5042329;28;20112;-41
2023/10/20 08:58:35;;;;;;;31.98;19.92;;;11.80;99.90;;;;;;5045194;28;20098;-40
2023/10/20 09:01:01;;;;;;;28.95;18.48;;;11.90;99.90;;;;;;5044131;28;20136;-38
2023/10/20 09:03:37;;;;;;;33.38;20.13;;;11.90;99.90;;;;;;5044679;28;20379;-37
2023/10/20 09:06:09;;;;;;;31.85;19.55;;;12.00;99.90;;;;;;5043843;28;20398;-39
2023/10/20 09:08:35;;;;;;;30.95;20.55;;;12.20;99.90;;;;;;5043590;28;20533;-40
2023/10/20 09:11:01;;;;;;;35.58;21.27;;;12.30;99.90;;;;;;5043118;28;20029;-40
2023/10/20 09:13:34;;;;;;;33.92;20.85;;;12.40;99.90;;;;;;5044678;28;20037;-38
2023/10/20 09:16:01;;;;;;;35.63;20.55;;;12.40;99.90;;;;;;5057614;28;20094;-40
2023/10/20 09:18:27;;;;;;;33.78;19.77;;;12.50;99.90;;;;;;5044485;28;20029;-40
2023/10/20 09:21:03;;;;;;;32.95;19.52;;;12.50;99.90;;;;;;5045485;28;20035;-38
2023/10/20 09:23:29;;;;;;;35.20;20.13;;;12.50;99.90;;;;;;5042796;28;20037;-36
2023/10/20 09:25:54;;;;;;;28.45;18.23;;;12.50;99.90;;;;;;5043410;28;20093;-39
2023/10/20 09:28:20;;;;;;;30.98;19.27;;;12.50;99.90;;;;;;5043868;28;20025;-40
2023/10/20 09:30:48;;;;;;;31.75;19.30;;;12.50;99.90;;;;;;5043332;28;20044;-38
2023/10/20 09:33:14;;;;;;;27.42;16.75;;;12.60;99.90;;;;;;5040542;28;20029;-37
2023/10/20 09:35:41;;;;;;;31.02;18.45;;;12.60;99.90;;;;;;5045289;28;20052;-40
2023/10/20 09:38:10;;;;;;;27.27;18.30;;;12.80;99.90;;;;;;5043361;28;20036;-39
2023/10/20 09:40:36;;;;;;;34.05;18.52;;;12.80;99.90;;;;;;5044173;28;20021;-40
2023/10/20 09:43:16;;;;;;;35.33;19.45;;;12.90;99.90;;;;;;5045107;28;20579;-33
2023/10/20 09:45:44;;;;;;;31.25;17.98;;;13.00;99.90;;;;;;5045905;28;20033;-33
2023/10/20 09:48:20;;;;;;;21.65;11.63;;;13.10;99.90;;;;;;5045007;28;20036;-31
2023/10/20 09:50:47;;;;;;;29.15;18.13;;;13.10;99.90;;;;;;5043058;28;20116;-30
2023/10/20 09:53:16;;;;;;;28.27;18.83;;;13.20;99.90;;;;;;5043037;28;20557;-36
2023/10/20 09:55:47;;;;;;;31.25;18.27;;;13.20;99.90;;;;;;5039037;28;20032;-38
2023/10/20 09:58:13;;;;;;;26.42;16.02;;;13.40;99.90;;;;;;5041978;28;20105;-35
2023/10/20 10:00:43;;;;;;;27.85;17.15;;;13.50;99.90;;;;;;5041265;28;20034;-41
2023/10/20 10:03:12;;;;;;;23.48;16.42;;;13.70;99.90;;;;;;5045751;28;20060;-39
2023/10/20 10:05:39;;;;;;;25.52;15.65;;;14.10;99.90;;;;;;5042236;28;20471;-38
2023/10/20 10:08:07;;;;;;;22.83;15.50;;;14.40;99.90;;;;;;5042805;28;20056;-43
2023/10/20 10:10:36;;;;;;;23.33;15.97;;;14.60;99.90;;;;;;5042360;28;20044;-36
2023/10/20 10:13:05;;;;;;;24.42;15.13;;;14.60;99.90;;;;;;5042551;28;20036;-40
2023/10/20 10:15:38;;;;;;;24.08;15.10;;;14.60;99.90;;;;;;5043588;28;20057;-43
2023/10/20 10:18:12;;;;;;;23.13;14.90;;;14.50;99.90;;;;;;5042992;28;20522;-39
2023/10/20 10:20:48;;;;;;;22.02;14.38;;;14.50;99.90;;;;;;5042520;28;20442;-41
2023/10/20 10:23:14;;;;;;;24.48;15.48;;;14.50;99.90;;;;;;5039076;28;20032;-36
2023/10/20 10:25:47;;;;;;;25.70;14.85;;;14.50;99.90;;;;;;5040871;28;20029;-43
2023/10/20 10:28:14;;;;;;;23.23;15.02;;;14.50;99.90;;;;;;5041342;28;20040;-36
2023/10/20 10:30:40;;;;;;;23.15;15.05;;;14.50;99.90;;;;;;5053504;28;20025;-42
2023/10/20 10:33:11;;;;;;;23.10;15.40;;;14.60;99.90;;;;;;5040574;28;20463;-43
2023/10/20 10:35:38;;;;;;;26.23;15.25;;;14.60;99.90;;;;;;5040098;28;20584;-38
2023/10/20 10:38:37;;;;;;;22.33;14.88;;;14.70;99.90;;;;;;5043107;28;20037;-35
2023/10/20 10:41:03;;;;;;;22.45;15.35;;;14.80;99.90;;;;;;5017805;28;20048;-39
2023/10/20 10:43:30;;;;;;;19.92;14.27;;;15.10;99.90;;;;;;5039023;28;20486;-42
2023/10/20 10:45:56;;;;;;;19.45;13.27;;;15.30;99.90;;;;;;5043588;28;20082;-41
2023/10/20 10:48:29;;;;;;;19.33;14.10;;;15.50;99.90;;;;;;5044293;28;20025;-41
2023/10/20 10:50:54;;;;;;;18.90;12.50;;;15.50;99.90;;;;;;5043508;28;20032;-41
2023/10/20 10:53:21;;;;;;;19.98;11.68;;;15.40;99.90;;;;;;5039977;28;20032;-38
2023/10/20 10:55:47;;;;;;;17.00;11.15;;;15.50;99.90;;;;;;5042094;28;20059;-39
2023/10/20 10:58:13;;;;;;;17.90;11.70;;;15.50;99.90;;;;;;5043462;28;20037;-37
2023/10/20 11:00:40;;;;;;;15.32;10.82;;;15.70;99.90;;;;;;5040415;28;20118;-40
2023/10/20 11:03:07;;;;;;;16.58;10.55;;;15.80;99.90;;;;;;5044244;28;20029;-30
2023/10/20 11:05:33;;;;;;;16.75;10.18;;;16.00;99.90;;;;;;5041019;28;20401;-31
2023/10/20 11:08:03;;;;;;;11.90;8.43;;;16.10;99.90;;;;;;5042255;28;20088;-32
2023/10/20 11:10:30;;;;;;;11.55;8.07;;;16.20;99.90;;;;;;5042840;28;20032;-30
2023/10/20 11:12:56;;;;;;;7.88;6.68;;;16.30;99.90;;;;;;5044943;28;20413;-30
2023/10/20 11:15:31;;;;;;;11.43;5.97;;;16.30;99.90;;;;;;5043980;28;20116;-31
2023/10/20 11:17:58;;;;;;;6.05;4.90;;;16.40;99.90;;;;;;5045955;28;20521;-31
2023/10/20 11:20:24;;;;;;;8.00;5.38;;;16.30;99.90;;;;;;5042755;28;20028;-31
2023/10/20 11:22:53;;;;;;;6.03;4.80;;;16.40;99.90;;;;;;5044776;28;20120;-31
2023/10/20 11:25:20;;;;;;;6.07;5.47;;;16.40;99.90;;;;;;5043569;28;20041;-33
2023/10/20 11:27:54;;;;;;;9.02;5.50;;;16.40;99.90;;;;;;5045849;28;20504;-30
2023/10/20 11:30:24;;;;;;;8.75;5.70;;;16.50;99.90;;;;;;5040447;28;20048;-30
2023/10/20 11:32:53;;;;;;;7.03;5.53;;;16.50;99.90;;;;;;5044194;28;20498;-31
2023/10/20 11:35:21;;;;;;;6.07;5.35;;;16.60;99.90;;;;;;5048307;28;20063;-31
2023/10/20 11:37:51;;;;;;;8.10;6.15;;;16.60;99.90;;;;;;5049825;28;20377;-31
2023/10/20 11:40:17;;;;;;;7.05;5.45;;;16.60;99.90;;;;;;5046806;28;20064;-31
2023/10/20 11:42:43;;;;;;;7.30;5.47;;;16.60;99.90;;;;;;5047723;28;20132;-33
2023/10/20 11:45:10;;;;;;;9.15;6.25;;;16.60;99.90;;;;;;5056795;28;20471;-31
2023/10/20 11:47:37;;;;;;;7.07;5.93;;;16.60;99.90;;;;;;5047975;28;20029;-31
2023/10/20 11:50:04;;;;;;;7.82;5.90;;;16.60;99.90;;;;;;5044792;28;20471;-31
2023/10/20 11:52:30;;;;;;;9.55;6.43;;;16.60;99.90;;;;;;5047304;28;20060;-31
2023/10/20 11:54:56;;;;;;;6.10;5.50;;;16.60;99.90;;;;;;5049719;28;20016;-31
2023/10/20 11:57:22;;;;;;;7.93;6.13;;;16.60;99.90;;;;;;5046175;28;20044;-32
2023/10/20 11:59:47;;;;;;;7.03;5.25;;;16.50;99.90;;;;;;5048844;28;20551;-31
2023/10/20 12:02:13;;;;;;;6.60;5.38;;;16.50;99.90;;;;;;5046280;28;20025;-35
2023/10/20 12:04:39;;;;;;;6.35;5.03;;;16.60;99.90;;;;;;5044777;28;20470;-32
2023/10/20 12:07:04;;;;;;;6.95;5.80;;;16.70;99.90;;;;;;5046505;28;20102;-31
2023/10/20 12:09:30;;;;;;;7.95;5.90;;;16.70;99.90;;;;;;5045512;28;20025;-32
2023/10/20 12:11:56;;;;;;;7.32;6.25;;;16.80;99.90;;;;;;5046705;28;20124;-35
2023/10/20 12:14:22;;;;;;;7.85;5.57;;;16.80;99.90;;;;;;5046710;28;20032;-36
2023/10/20 12:16:48;;;;;;;7.53;6.32;;;16.80;99.90;;;;;;5045524;28;20024;-32
2023/10/20 12:19:13;;;;;;;7.82;5.18;;;16.70;99.90;;;;;;5043498;28;20797;-34
2023/10/20 12:21:39;;;;;;;6.43;5.63;;;16.80;99.90;;;;;;5045319;28;20028;-32
2023/10/20 12:24:05;;;;;;;5.53;4.90;;;16.90;99.90;;;;;;5043564;28;20132;-33
2023/10/20 12:26:31;;;;;;;5.97;5.13;;;17.00;99.90;;;;;;5041820;28;20040;-34
2023/10/20 12:28:57;;;;;;;7.68;5.38;;;17.00;99.90;;;;;;5046013;28;20033;-33
2023/10/20 12:31:26;;;;;;;7.90;5.30;;;17.00;99.90;;;;;;5040522;28;20116;-34
2023/10/20 12:33:51;;;;;;;5.22;4.43;;;16.90;99.90;;;;;;5045353;28;20151;-34
2023/10/20 12:36:17;;;;;;;6.35;5.15;;;16.90;99.90;;;;;;5045279;28;20125;-35
2023/10/20 12:38:46;;;;;;;6.80;5.32;;;16.90;99.90;;;;;;5042278;28;20043;-32
2023/10/20 12:41:15;;;;;;;5.53;4.93;;;17.10;99.90;;;;;;5042551;28;20025;-33
2023/10/20 12:43:42;;;;;;;4.50;4.10;;;17.30;99.90;;;;;;5042606;28;20031;-33
2023/10/20 12:46:11;;;;;;;4.70;4.28;;;17.40;99.90;;;;;;5041117;28;20036;-35
2023/10/20 12:48:37;;;;;;;4.20;3.80;;;17.50;99.90;;;;;;5042127;28;20025;-33
2023/10/20 12:51:13;;;;;;;4.13;3.72;;;17.70;99.90;;;;;;5043814;28;20036;-35
2023/10/20 12:53:40;;;;;;;4.05;3.60;;;17.70;99.90;;;;;;5035229;28;20028;-34
2023/10/20 12:56:06;;;;;;;2.90;2.60;;;17.80;99.90;;;;;;5034083;28;20037;-32
2023/10/20 12:58:32;;;;;;;3.60;2.60;;;17.80;99.90;;;;;;5038242;28;20037;-35
2023/10/20 13:00:58;;;;;;;6.50;2.63;;;17.80;99.90;;;;;;5038327;28;21252;-33
2023/10/20 13:03:26;;;;;;;2.63;2.25;;;17.60;99.90;;;;;;5041806;28;20028;-35
2023/10/20 13:05:52;;;;;;;2.15;1.95;;;17.50;99.90;;;;;;5038992;28;20044;-31
2023/10/20 13:08:18;;;;;;;1.75;1.65;;;17.40;99.90;;;;;;5041728;28;20029;-35